sensor_id;sensor_type;location;lat;lon;timestamp;P1;durP1;ratioP1;P2;durP2;ratioP2
55292;SDS011;41157;53.560;10.098;2023-11-21T00:01:05;8.43;;;5.60;;
55292;SDS011;41157;53.560;10.098;2023-11-21T00:03:33;8.77;;;5.90;;
55292;SDS011;41157;53.560;10.098;2023-11-21T00:06:02;10.83;;;6.10;;
55292;SDS011;41157;53.560;10.098;2023-11-21T00:08:29;8.60;;;5.53;;
55292;SDS011;41157;53.560;10.098;2023-11-21T00:10:56;10.23;;;6.23;;
55292;SDS011;41157;53.560;10.098;2023-11-21T00:13:25;7.37;;;5.57;;
55292;SDS011;41157;53.560;10.098;2023-11-21T00:15:52;10.60;;;5.40;;
55292;SDS011;41157;53.560;10.098;2023-11-21T00:18:19;8.20;;;5.40;;
55292;SDS011;41157;53.560;10.098;2023-11-21T00:20:46;8.97;;;5.50;;
55292;SDS011;41157;53.560;10.098;2023-11-21T00:23:14;8.53;;;5.67;;
55292;SDS011;41157;53.560;10.098;2023-11-21T00:25:41;7.73;;;5.43;;
55292;SDS011;41157;53.560;10.098;2023-11-21T00:28:09;8.67;;;5.63;;
55292;SDS011;41157;53.560;10.098;2023-11-21T00:30:36;7.30;;;5.37;;
55292;SDS011;41157;53.560;10.098;2023-11-21T00:33:03;9.23;;;5.73;;
55292;SDS011;41157;53.560;10.098;2023-11-21T00:35:30;6.03;;;4.23;;
55292;SDS011;41157;53.560;10.098;2023-11-21T00:37:57;8.37;;;5.60;;
55292;SDS011;41157;53.560;10.098;2023-11-21T00:40:25;6.23;;;4.63;;
55292;SDS011;41157;53.560;10.098;2023-11-21T00:42:52;6.90;;;4.60;;
55292;SDS011;41157;53.560;10.098;2023-11-21T00:45:21;7.20;;;5.07;;
55292;SDS011;41157;53.560;10.098;2023-11-21T00:47:48;9.57;;;5.20;;
55292;SDS011;41157;53.560;10.098;2023-11-21T00:50:15;9.87;;;5.50;;
55292;SDS011;41157;53.560;10.098;2023-11-21T00:52:42;7.90;;;5.30;;
55292;SDS011;41157;53.560;10.098;2023-11-21T00:55:09;9.00;;;5.27;;
55292;SDS011;41157;53.560;10.098;2023-11-21T00:57:38;10.00;;;5.87;;
55292;SDS011;41157;53.560;10.098;2023-11-21T01:00:05;14.43;;;6.40;;
55292;SDS011;41157;53.560;10.098;2023-11-21T01:02:34;10.93;;;6.30;;
55292;SDS011;41157;53.560;10.098;2023-11-21T01:05:01;10.90;;;6.93;;
55292;SDS011;41157;53.560;10.098;2023-11-21T01:07:28;10.37;;;6.57;;
55292;SDS011;41157;53.560;10.098;2023-11-21T01:09:55;13.80;;;6.60;;
55292;SDS011;41157;53.560;10.098;2023-11-21T01:12:22;10.17;;;6.70;;
55292;SDS011;41157;53.560;10.098;2023-11-21T01:14:51;10.23;;;6.57;;
55292;SDS011;41157;53.560;10.098;2023-11-21T01:17:18;9.93;;;6.53;;
55292;SDS011;41157;53.560;10.098;2023-11-21T01:19:47;10.20;;;6.90;;
55292;SDS011;41157;53.560;10.098;2023-11-21T01:22:14;10.50;;;7.17;;
55292;SDS011;41157;53.560;10.098;2023-11-21T01:24:43;13.40;;;7.20;;
55292;SDS011;41157;53.560;10.098;2023-11-21T01:27:10;11.60;;;6.80;;
55292;SDS011;41157;53.560;10.098;2023-11-21T01:29:37;14.53;;;7.77;;
55292;SDS011;41157;53.560;10.098;2023-11-21T01:32:06;13.90;;;7.87;;
55292;SDS011;41157;53.560;10.098;2023-11-21T01:34:34;13.17;;;7.23;;
55292;SDS011;41157;53.560;10.098;2023-11-21T01:37:02;10.80;;;6.70;;
55292;SDS011;41157;53.560;10.098;2023-11-21T01:39:30;12.47;;;6.80;;
55292;SDS011;41157;53.560;10.098;2023-11-21T01:41:57;11.33;;;6.97;;
55292;SDS011;41157;53.560;10.098;2023-11-21T01:44:24;8.10;;;6.00;;
55292;SDS011;41157;53.560;10.098;2023-11-21T01:46:51;9.13;;;6.10;;
55292;SDS011;41157;53.560;10.098;2023-11-21T01:49:20;7.93;;;5.60;;
55292;SDS011;41157;53.560;10.098;2023-11-21T01:51:47;6.90;;;4.83;;
55292;SDS011;41157;53.560;10.098;2023-11-21T01:54:15;6.37;;;4.67;;
55292;SDS011;41157;53.560;10.098;2023-11-21T01:56:43;7.50;;;5.00;;
55292;SDS011;41157;53.560;10.098;2023-11-21T01:59:10;6.47;;;4.63;;
55292;SDS011;41157;53.560;10.098;2023-11-21T02:01:38;8.73;;;5.17;;
55292;SDS011;41157;53.560;10.098;2023-11-21T02:04:06;7.20;;;4.47;;
55292;SDS011;41157;53.560;10.098;2023-11-21T02:06:35;8.60;;;4.87;;
55292;SDS011;41157;53.560;10.098;2023-11-21T02:09:02;6.97;;;5.00;;
55292;SDS011;41157;53.560;10.098;2023-11-21T02:11:29;6.80;;;4.53;;
55292;SDS011;41157;53.560;10.098;2023-11-21T02:13:59;9.53;;;5.27;;
55292;SDS011;41157;53.560;10.098;2023-11-21T02:16:26;6.53;;;4.47;;
55292;SDS011;41157;53.560;10.098;2023-11-21T02:18:56;8.07;;;5.07;;
55292;SDS011;41157;53.560;10.098;2023-11-21T02:21:24;12.10;;;5.30;;
55292;SDS011;41157;53.560;10.098;2023-11-21T02:23:52;9.40;;;4.70;;
55292;SDS011;41157;53.560;10.098;2023-11-21T02:26:20;5.40;;;4.00;;
55292;SDS011;41157;53.560;10.098;2023-11-21T02:28:47;6.47;;;4.20;;
55292;SDS011;41157;53.560;10.098;2023-11-21T02:31:14;6.00;;;4.60;;
55292;SDS011;41157;53.560;10.098;2023-11-21T02:33:41;6.47;;;4.40;;
55292;SDS011;41157;53.560;10.098;2023-11-21T02:36:09;6.57;;;4.40;;
55292;SDS011;41157;53.560;10.098;2023-11-21T02:38:36;7.03;;;4.73;;
55292;SDS011;41157;53.560;10.098;2023-11-21T02:41:04;10.23;;;4.40;;
55292;SDS011;41157;53.560;10.098;2023-11-21T02:43:31;8.77;;;4.83;;
55292;SDS011;41157;53.560;10.098;2023-11-21T02:45:58;7.00;;;4.67;;
55292;SDS011;41157;53.560;10.098;2023-11-21T02:48:25;6.17;;;4.70;;
55292;SDS011;41157;53.560;10.098;2023-11-21T02:50:52;6.07;;;4.57;;
55292;SDS011;41157;53.560;10.098;2023-11-21T02:53:19;6.50;;;5.00;;
55292;SDS011;41157;53.560;10.098;2023-11-21T02:55:46;10.07;;;5.20;;
55292;SDS011;41157;53.560;10.098;2023-11-21T02:58:14;9.03;;;5.17;;
55292;SDS011;41157;53.560;10.098;2023-11-21T03:00:41;7.37;;;4.93;;
55292;SDS011;41157;53.560;10.098;2023-11-21T03:03:08;7.27;;;4.93;;
55292;SDS011;41157;53.560;10.098;2023-11-21T03:05:35;6.40;;;4.60;;
55292;SDS011;41157;53.560;10.098;2023-11-21T03:08:03;9.57;;;4.73;;
55292;SDS011;41157;53.560;10.098;2023-11-21T03:10:30;8.03;;;5.13;;
55292;SDS011;41157;53.560;10.098;2023-11-21T03:12:58;6.27;;;4.17;;
55292;SDS011;41157;53.560;10.098;2023-11-21T03:15:26;8.37;;;5.10;;
55292;SDS011;41157;53.560;10.098;2023-11-21T03:17:53;9.40;;;5.57;;
55292;SDS011;41157;53.560;10.098;2023-11-21T03:20:20;6.47;;;4.57;;
55292;SDS011;41157;53.560;10.098;2023-11-21T03:22:47;5.57;;;4.57;;
55292;SDS011;41157;53.560;10.098;2023-11-21T03:25:14;8.47;;;4.83;;
55292;SDS011;41157;53.560;10.098;2023-11-21T03:27:42;10.27;;;5.63;;
55292;SDS011;41157;53.560;10.098;2023-11-21T03:30:09;6.27;;;4.53;;
55292;SDS011;41157;53.560;10.098;2023-11-21T03:32:38;9.17;;;5.10;;
55292;SDS011;41157;53.560;10.098;2023-11-21T03:35:05;9.20;;;5.07;;
55292;SDS011;41157;53.560;10.098;2023-11-21T03:37:32;7.40;;;5.00;;
55292;SDS011;41157;53.560;10.098;2023-11-21T03:39:59;6.30;;;4.60;;
55292;SDS011;41157;53.560;10.098;2023-11-21T03:42:28;8.33;;;4.97;;
55292;SDS011;41157;53.560;10.098;2023-11-21T03:44:55;7.30;;;4.67;;
55292;SDS011;41157;53.560;10.098;2023-11-21T03:47:22;7.67;;;5.47;;
55292;SDS011;41157;53.560;10.098;2023-11-21T03:49:51;7.60;;;4.97;;
55292;SDS011;41157;53.560;10.098;2023-11-21T03:52:18;8.10;;;5.07;;
55292;SDS011;41157;53.560;10.098;2023-11-21T03:54:45;8.53;;;5.37;;
55292;SDS011;41157;53.560;10.098;2023-11-21T03:57:12;6.90;;;4.83;;
55292;SDS011;41157;53.560;10.098;2023-11-21T03:59:39;12.63;;;5.20;;
55292;SDS011;41157;53.560;10.098;2023-11-21T04:02:07;6.07;;;4.77;;
55292;SDS011;41157;53.560;10.098;2023-11-21T04:04:34;12.40;;;5.37;;
55292;SDS011;41157;53.560;10.098;2023-11-21T04:07:02;6.73;;;5.10;;
55292;SDS011;41157;53.560;10.098;2023-11-21T04:09:29;11.80;;;6.00;;
55292;SDS011;41157;53.560;10.098;2023-11-21T04:11:56;7.47;;;5.23;;
55292;SDS011;41157;53.560;10.098;2023-11-21T04:14:23;8.57;;;5.00;;
55292;SDS011;41157;53.560;10.098;2023-11-21T04:16:50;8.27;;;4.90;;
55292;SDS011;41157;53.560;10.098;2023-11-21T04:19:18;8.80;;;5.13;;
55292;SDS011;41157;53.560;10.098;2023-11-21T04:21:45;7.80;;;4.73;;
55292;SDS011;41157;53.560;10.098;2023-11-21T04:24:14;13.23;;;5.20;;
55292;SDS011;41157;53.560;10.098;2023-11-21T04:26:41;5.20;;;4.33;;
55292;SDS011;41157;53.560;10.098;2023-11-21T04:29:08;8.93;;;4.87;;
55292;SDS011;41157;53.560;10.098;2023-11-21T04:31:35;7.60;;;4.97;;
55292;SDS011;41157;53.560;10.098;2023-11-21T04:34:02;6.87;;;4.97;;
55292;SDS011;41157;53.560;10.098;2023-11-21T04:36:29;8.17;;;5.60;;
55292;SDS011;41157;53.560;10.098;2023-11-21T04:38:56;9.37;;;5.03;;
55292;SDS011;41157;53.560;10.098;2023-11-21T04:41:25;8.57;;;5.40;;
55292;SDS011;41157;53.560;10.098;2023-11-21T04:43:52;7.20;;;5.53;;
55292;SDS011;41157;53.560;10.098;2023-11-21T04:46:19;9.57;;;5.90;;
55292;SDS011;41157;53.560;10.098;2023-11-21T04:48:46;8.30;;;5.57;;
55292;SDS011;41157;53.560;10.098;2023-11-21T04:51:13;9.30;;;5.33;;
55292;SDS011;41157;53.560;10.098;2023-11-21T04:53:40;7.40;;;5.50;;
55292;SDS011;41157;53.560;10.098;2023-11-21T04:56:07;9.67;;;5.47;;
55292;SDS011;41157;53.560;10.098;2023-11-21T04:58:36;8.40;;;5.80;;
55292;SDS011;41157;53.560;10.098;2023-11-21T05:01:05;8.20;;;5.20;;
55292;SDS011;41157;53.560;10.098;2023-11-21T05:03:32;8.93;;;5.57;;
55292;SDS011;41157;53.560;10.098;2023-11-21T05:05:59;8.67;;;6.10;;
55292;SDS011;41157;53.560;10.098;2023-11-21T05:08:26;8.23;;;5.80;;
55292;SDS011;41157;53.560;10.098;2023-11-21T05:10:53;9.43;;;6.50;;
55292;SDS011;41157;53.560;10.098;2023-11-21T05:13:20;8.20;;;4.83;;
55292;SDS011;41157;53.560;10.098;2023-11-21T05:15:53;9.20;;;5.80;;
55292;SDS011;41157;53.560;10.098;2023-11-21T05:18:20;7.53;;;5.30;;
55292;SDS011;41157;53.560;10.098;2023-11-21T05:20:47;7.70;;;5.27;;
55292;SDS011;41157;53.560;10.098;2023-11-21T05:23:15;11.57;;;5.70;;
55292;SDS011;41157;53.560;10.098;2023-11-21T05:25:42;6.73;;;5.17;;
55292;SDS011;41157;53.560;10.098;2023-11-21T05:28:09;7.07;;;5.27;;
55292;SDS011;41157;53.560;10.098;2023-11-21T05:30:36;8.47;;;5.83;;
55292;SDS011;41157;53.560;10.098;2023-11-21T05:33:05;10.03;;;6.07;;
55292;SDS011;41157;53.560;10.098;2023-11-21T05:35:32;6.87;;;5.23;;
55292;SDS011;41157;53.560;10.098;2023-11-21T05:37:59;9.27;;;5.90;;
55292;SDS011;41157;53.560;10.098;2023-11-21T05:40:26;10.07;;;5.67;;
55292;SDS011;41157;53.560;10.098;2023-11-21T05:42:54;7.83;;;5.13;;
55292;SDS011;41157;53.560;10.098;2023-11-21T05:45:22;9.00;;;5.67;;
55292;SDS011;41157;53.560;10.098;2023-11-21T05:47:49;7.27;;;5.50;;
55292;SDS011;41157;53.560;10.098;2023-11-21T05:50:17;8.23;;;5.43;;
55292;SDS011;41157;53.560;10.098;2023-11-21T05:52:44;12.40;;;6.20;;
55292;SDS011;41157;53.560;10.098;2023-11-21T05:55:12;10.17;;;5.53;;
55292;SDS011;41157;53.560;10.098;2023-11-21T05:57:39;10.57;;;5.60;;
55292;SDS011;41157;53.560;10.098;2023-11-21T06:00:07;8.37;;;5.87;;
55292;SDS011;41157;53.560;10.098;2023-11-21T06:02:44;7.53;;;5.60;;
55292;SDS011;41157;53.560;10.098;2023-11-21T06:05:12;7.40;;;5.60;;
55292;SDS011;41157;53.560;10.098;2023-11-21T06:07:40;7.97;;;5.43;;
55292;SDS011;41157;53.560;10.098;2023-11-21T06:10:07;8.73;;;5.93;;
55292;SDS011;41157;53.560;10.098;2023-11-21T06:12:36;8.90;;;5.50;;
55292;SDS011;41157;53.560;10.098;2023-11-21T06:15:03;8.40;;;5.00;;
55292;SDS011;41157;53.560;10.098;2023-11-21T06:17:32;9.67;;;5.60;;
55292;SDS011;41157;53.560;10.098;2023-11-21T06:20:01;9.10;;;5.60;;
55292;SDS011;41157;53.560;10.098;2023-11-21T06:22:34;13.30;;;5.33;;
55292;SDS011;41157;53.560;10.098;2023-11-21T06:25:02;7.20;;;4.90;;
55292;SDS011;41157;53.560;10.098;2023-11-21T06:27:31;8.27;;;5.87;;
55292;SDS011;41157;53.560;10.098;2023-11-21T06:29:59;8.00;;;4.83;;
55292;SDS011;41157;53.560;10.098;2023-11-21T06:32:26;6.63;;;5.37;;
55292;SDS011;41157;53.560;10.098;2023-11-21T06:34:54;7.23;;;6.03;;
55292;SDS011;41157;53.560;10.098;2023-11-21T06:37:24;10.80;;;5.47;;
55292;SDS011;41157;53.560;10.098;2023-11-21T06:39:51;12.47;;;6.20;;
55292;SDS011;41157;53.560;10.098;2023-11-21T06:42:20;7.97;;;5.67;;
55292;SDS011;41157;53.560;10.098;2023-11-21T06:44:47;8.53;;;5.77;;
55292;SDS011;41157;53.560;10.098;2023-11-21T06:47:16;11.07;;;6.20;;
55292;SDS011;41157;53.560;10.098;2023-11-21T06:49:45;7.67;;;5.53;;
55292;SDS011;41157;53.560;10.098;2023-11-21T06:52:13;7.50;;;5.40;;
55292;SDS011;41157;53.560;10.098;2023-11-21T06:54:40;7.23;;;5.83;;
55292;SDS011;41157;53.560;10.098;2023-11-21T06:57:07;8.70;;;5.60;;
55292;SDS011;41157;53.560;10.098;2023-11-21T06:59:35;8.90;;;5.77;;
55292;SDS011;41157;53.560;10.098;2023-11-21T07:02:02;12.83;;;6.53;;
55292;SDS011;41157;53.560;10.098;2023-11-21T07:04:31;7.90;;;5.87;;
55292;SDS011;41157;53.560;10.098;2023-11-21T07:06:58;6.90;;;5.57;;
55292;SDS011;41157;53.560;10.098;2023-11-21T07:09:25;7.43;;;5.50;;
55292;SDS011;41157;53.560;10.098;2023-11-21T07:11:52;8.30;;;5.83;;
55292;SDS011;41157;53.560;10.098;2023-11-21T07:14:20;9.37;;;5.73;;
55292;SDS011;41157;53.560;10.098;2023-11-21T07:16:49;8.90;;;6.03;;
55292;SDS011;41157;53.560;10.098;2023-11-21T07:19:17;11.43;;;5.80;;
55292;SDS011;41157;53.560;10.098;2023-11-21T07:21:44;10.10;;;5.83;;
55292;SDS011;41157;53.560;10.098;2023-11-21T07:24:11;9.37;;;5.67;;
55292;SDS011;41157;53.560;10.098;2023-11-21T07:26:38;9.20;;;5.80;;
55292;SDS011;41157;53.560;10.098;2023-11-21T07:29:06;7.97;;;5.17;;
55292;SDS011;41157;53.560;10.098;2023-11-21T07:31:33;9.30;;;5.80;;
55292;SDS011;41157;53.560;10.098;2023-11-21T07:34:01;8.57;;;5.30;;
55292;SDS011;41157;53.560;10.098;2023-11-21T07:36:28;8.40;;;5.20;;
55292;SDS011;41157;53.560;10.098;2023-11-21T07:38:55;8.33;;;5.83;;
55292;SDS011;41157;53.560;10.098;2023-11-21T07:41:22;12.17;;;6.13;;
55292;SDS011;41157;53.560;10.098;2023-11-21T07:43:49;9.97;;;5.53;;
55292;SDS011;41157;53.560;10.098;2023-11-21T07:46:16;6.80;;;5.00;;
55292;SDS011;41157;53.560;10.098;2023-11-21T07:48:44;7.67;;;5.20;;
55292;SDS011;41157;53.560;10.098;2023-11-21T07:51:13;6.23;;;4.70;;
55292;SDS011;41157;53.560;10.098;2023-11-21T07:53:40;7.17;;;4.77;;
55292;SDS011;41157;53.560;10.098;2023-11-21T07:56:07;7.10;;;4.73;;
55292;SDS011;41157;53.560;10.098;2023-11-21T07:58:34;6.20;;;4.27;;
55292;SDS011;41157;53.560;10.098;2023-11-21T08:01:02;7.37;;;4.20;;
55292;SDS011;41157;53.560;10.098;2023-11-21T08:03:29;5.93;;;4.27;;
55292;SDS011;41157;53.560;10.098;2023-11-21T08:05:56;7.87;;;4.43;;
55292;SDS011;41157;53.560;10.098;2023-11-21T08:08:24;6.00;;;4.17;;
55292;SDS011;41157;53.560;10.098;2023-11-21T08:10:52;6.17;;;4.10;;
55292;SDS011;41157;53.560;10.098;2023-11-21T08:13:22;7.10;;;4.03;;
55292;SDS011;41157;53.560;10.098;2023-11-21T08:15:49;6.50;;;3.87;;
55292;SDS011;41157;53.560;10.098;2023-11-21T08:18:16;4.80;;;3.47;;
55292;SDS011;41157;53.560;10.098;2023-11-21T08:20:44;5.63;;;3.87;;
55292;SDS011;41157;53.560;10.098;2023-11-21T08:23:13;8.13;;;3.60;;
55292;SDS011;41157;53.560;10.098;2023-11-21T08:25:42;4.57;;;3.40;;
55292;SDS011;41157;53.560;10.098;2023-11-21T08:28:09;7.00;;;4.00;;
55292;SDS011;41157;53.560;10.098;2023-11-21T08:30:37;7.20;;;4.03;;
55292;SDS011;41157;53.560;10.098;2023-11-21T08:33:04;8.30;;;3.40;;
55292;SDS011;41157;53.560;10.098;2023-11-21T08:35:31;4.20;;;3.57;;
55292;SDS011;41157;53.560;10.098;2023-11-21T08:37:58;4.17;;;3.20;;
55292;SDS011;41157;53.560;10.098;2023-11-21T08:40:26;4.50;;;3.20;;
55292;SDS011;41157;53.560;10.098;2023-11-21T08:42:54;6.53;;;4.00;;
55292;SDS011;41157;53.560;10.098;2023-11-21T08:45:23;3.80;;;3.13;;
55292;SDS011;41157;53.560;10.098;2023-11-21T08:47:51;4.17;;;3.00;;
55292;SDS011;41157;53.560;10.098;2023-11-21T08:50:18;4.50;;;3.07;;
55292;SDS011;41157;53.560;10.098;2023-11-21T08:52:45;4.37;;;3.07;;
55292;SDS011;41157;53.560;10.098;2023-11-21T08:55:12;3.23;;;2.93;;
55292;SDS011;41157;53.560;10.098;2023-11-21T08:57:39;5.00;;;3.50;;
55292;SDS011;41157;53.560;10.098;2023-11-21T09:00:08;3.87;;;3.00;;
55292;SDS011;41157;53.560;10.098;2023-11-21T09:02:36;3.40;;;3.07;;
55292;SDS011;41157;53.560;10.098;2023-11-21T09:05:04;4.50;;;3.10;;
55292;SDS011;41157;53.560;10.098;2023-11-21T09:07:32;3.37;;;3.03;;
55292;SDS011;41157;53.560;10.098;2023-11-21T09:09:59;4.57;;;3.03;;
55292;SDS011;41157;53.560;10.098;2023-11-21T09:12:26;4.67;;;3.53;;
55292;SDS011;41157;53.560;10.098;2023-11-21T09:14:53;4.73;;;3.20;;
55292;SDS011;41157;53.560;10.098;2023-11-21T09:17:21;5.40;;;3.13;;
55292;SDS011;41157;53.560;10.098;2023-11-21T09:19:48;3.90;;;2.97;;
55292;SDS011;41157;53.560;10.098;2023-11-21T09:22:16;3.80;;;3.30;;
55292;SDS011;41157;53.560;10.098;2023-11-21T09:24:43;3.87;;;2.87;;
55292;SDS011;41157;53.560;10.098;2023-11-21T09:27:10;4.80;;;2.70;;
55292;SDS011;41157;53.560;10.098;2023-11-21T09:29:37;4.27;;;3.10;;
55292;SDS011;41157;53.560;10.098;2023-11-21T09:32:04;5.57;;;3.30;;
55292;SDS011;41157;53.560;10.098;2023-11-21T09:34:34;3.80;;;2.90;;
55292;SDS011;41157;53.560;10.098;2023-11-21T09:37:03;4.03;;;2.87;;
55292;SDS011;41157;53.560;10.098;2023-11-21T09:39:31;3.60;;;2.40;;
55292;SDS011;41157;53.560;10.098;2023-11-21T09:42:00;4.50;;;3.00;;
55292;SDS011;41157;53.560;10.098;2023-11-21T09:44:31;3.23;;;2.50;;
55292;SDS011;41157;53.560;10.098;2023-11-21T09:47:00;5.70;;;2.57;;
55292;SDS011;41157;53.560;10.098;2023-11-21T09:49:27;3.80;;;2.70;;
55292;SDS011;41157;53.560;10.098;2023-11-21T09:52:00;2.93;;;2.53;;
55292;SDS011;41157;53.560;10.098;2023-11-21T09:54:29;3.03;;;2.70;;
55292;SDS011;41157;53.560;10.098;2023-11-21T09:56:57;3.50;;;2.93;;
55292;SDS011;41157;53.560;10.098;2023-11-21T09:59:24;4.70;;;3.03;;
55292;SDS011;41157;53.560;10.098;2023-11-21T10:01:54;2.60;;;2.40;;
55292;SDS011;41157;53.560;10.098;2023-11-21T10:04:20;4.27;;;2.40;;
55292;SDS011;41157;53.560;10.098;2023-11-21T10:06:47;5.50;;;2.50;;
55292;SDS011;41157;53.560;10.098;2023-11-21T10:09:16;3.63;;;2.60;;
55292;SDS011;41157;53.560;10.098;2023-11-21T10:11:45;4.00;;;2.90;;
55292;SDS011;41157;53.560;10.098;2023-11-21T10:14:14;4.67;;;2.63;;
55292;SDS011;41157;53.560;10.098;2023-11-21T10:16:43;4.03;;;2.53;;
55292;SDS011;41157;53.560;10.098;2023-11-21T10:19:12;5.03;;;2.80;;
55292;SDS011;41157;53.560;10.098;2023-11-21T10:21:41;6.00;;;2.63;;
55292;SDS011;41157;53.560;10.098;2023-11-21T10:24:08;3.50;;;2.20;;
55292;SDS011;41157;53.560;10.098;2023-11-21T10:26:38;3.93;;;2.70;;
55292;SDS011;41157;53.560;10.098;2023-11-21T10:29:06;3.03;;;2.50;;
55292;SDS011;41157;53.560;10.098;2023-11-21T10:31:34;2.83;;;2.47;;
55292;SDS011;41157;53.560;10.098;2023-11-21T10:34:12;3.90;;;2.70;;
55292;SDS011;41157;53.560;10.098;2023-11-21T10:36:39;2.50;;;2.30;;
55292;SDS011;41157;53.560;10.098;2023-11-21T10:39:06;3.47;;;2.80;;
55292;SDS011;41157;53.560;10.098;2023-11-21T10:41:34;4.77;;;2.33;;
55292;SDS011;41157;53.560;10.098;2023-11-21T10:44:03;2.70;;;2.20;;
55292;SDS011;41157;53.560;10.098;2023-11-21T10:46:32;3.17;;;2.47;;
55292;SDS011;41157;53.560;10.098;2023-11-21T10:49:00;3.07;;;2.37;;
55292;SDS011;41157;53.560;10.098;2023-11-21T10:51:27;3.27;;;2.10;;
55292;SDS011;41157;53.560;10.098;2023-11-21T10:53:54;5.73;;;2.17;;
55292;SDS011;41157;53.560;10.098;2023-11-21T10:56:22;2.80;;;2.37;;
55292;SDS011;41157;53.560;10.098;2023-11-21T10:58:50;2.73;;;2.30;;
55292;SDS011;41157;53.560;10.098;2023-11-21T11:01:18;3.13;;;2.27;;
55292;SDS011;41157;53.560;10.098;2023-11-21T11:03:47;4.93;;;2.27;;
55292;SDS011;41157;53.560;10.098;2023-11-21T11:06:14;4.47;;;2.30;;
55292;SDS011;41157;53.560;10.098;2023-11-21T11:08:42;7.63;;;2.53;;
55292;SDS011;41157;53.560;10.098;2023-11-21T11:11:10;2.33;;;2.13;;
55292;SDS011;41157;53.560;10.098;2023-11-21T11:13:38;3.00;;;2.37;;
55292;SDS011;41157;53.560;10.098;2023-11-21T11:16:10;2.93;;;1.93;;
55292;SDS011;41157;53.560;10.098;2023-11-21T11:18:43;4.53;;;2.57;;
55292;SDS011;41157;53.560;10.098;2023-11-21T11:21:15;2.83;;;2.37;;
55292;SDS011;41157;53.560;10.098;2023-11-21T11:23:49;2.50;;;2.30;;
55292;SDS011;41157;53.560;10.098;2023-11-21T11:26:24;3.37;;;2.23;;
55292;SDS011;41157;53.560;10.098;2023-11-21T11:28:57;4.03;;;2.43;;
55292;SDS011;41157;53.560;10.098;2023-11-21T11:31:30;4.03;;;2.50;;
55292;SDS011;41157;53.560;10.098;2023-11-21T11:34:01;3.83;;;2.60;;
55292;SDS011;41157;53.560;10.098;2023-11-21T11:36:35;3.03;;;2.00;;
55292;SDS011;41157;53.560;10.098;2023-11-21T11:39:03;4.20;;;2.30;;
55292;SDS011;41157;53.560;10.098;2023-11-21T11:41:30;3.67;;;2.17;;
55292;SDS011;41157;53.560;10.098;2023-11-21T11:43:59;2.37;;;2.17;;
55292;SDS011;41157;53.560;10.098;2023-11-21T11:46:40;2.93;;;2.27;;
55292;SDS011;41157;53.560;10.098;2023-11-21T11:49:09;3.00;;;2.20;;
55292;SDS011;41157;53.560;10.098;2023-11-21T11:51:36;3.20;;;2.10;;
55292;SDS011;41157;53.560;10.098;2023-11-21T11:54:03;4.77;;;2.30;;
55292;SDS011;41157;53.560;10.098;2023-11-21T11:56:34;2.90;;;2.10;;
55292;SDS011;41157;53.560;10.098;2023-11-21T11:59:02;4.83;;;2.00;;
55292;SDS011;41157;53.560;10.098;2023-11-21T12:01:32;4.77;;;2.13;;
55292;SDS011;41157;53.560;10.098;2023-11-21T12:06:48;4.07;;;2.20;;
55292;SDS011;41157;53.560;10.098;2023-11-21T12:09:17;3.80;;;2.27;;
55292;SDS011;41157;53.560;10.098;2023-11-21T12:11:45;2.23;;;2.00;;
55292;SDS011;41157;53.560;10.098;2023-11-21T12:14:12;4.73;;;2.20;;
55292;SDS011;41157;53.560;10.098;2023-11-21T12:16:40;3.43;;;2.37;;
55292;SDS011;41157;53.560;10.098;2023-11-21T12:19:07;4.57;;;2.37;;
55292;SDS011;41157;53.560;10.098;2023-11-21T12:21:35;4.80;;;2.37;;
55292;SDS011;41157;53.560;10.098;2023-11-21T12:24:04;2.97;;;2.10;;
55292;SDS011;41157;53.560;10.098;2023-11-21T12:26:33;3.37;;;2.23;;
55292;SDS011;41157;53.560;10.098;2023-11-21T12:29:01;2.63;;;2.10;;
55292;SDS011;41157;53.560;10.098;2023-11-21T12:31:29;4.13;;;2.50;;
55292;SDS011;41157;53.560;10.098;2023-11-21T12:33:56;2.97;;;2.40;;
55292;SDS011;41157;53.560;10.098;2023-11-21T12:36:24;4.43;;;2.30;;
55292;SDS011;41157;53.560;10.098;2023-11-21T12:38:51;3.90;;;2.10;;
55292;SDS011;41157;53.560;10.098;2023-11-21T12:41:19;4.50;;;1.93;;
55292;SDS011;41157;53.560;10.098;2023-11-21T12:43:47;3.33;;;2.10;;
55292;SDS011;41157;53.560;10.098;2023-11-21T12:46:14;3.17;;;2.20;;
55292;SDS011;41157;53.560;10.098;2023-11-21T12:48:42;3.67;;;2.17;;
55292;SDS011;41157;53.560;10.098;2023-11-21T12:51:11;3.47;;;2.30;;
55292;SDS011;41157;53.560;10.098;2023-11-21T12:53:39;4.03;;;2.20;;
55292;SDS011;41157;53.560;10.098;2023-11-21T12:56:06;2.30;;;2.10;;
55292;SDS011;41157;53.560;10.098;2023-11-21T12:58:36;3.77;;;1.80;;
55292;SDS011;41157;53.560;10.098;2023-11-21T13:01:05;2.63;;;2.20;;
55292;SDS011;41157;53.560;10.098;2023-11-21T13:03:36;2.87;;;2.40;;
55292;SDS011;41157;53.560;10.098;2023-11-21T13:06:05;2.90;;;2.03;;
55292;SDS011;41157;53.560;10.098;2023-11-21T13:08:33;2.27;;;1.90;;
55292;SDS011;41157;53.560;10.098;2023-11-21T13:11:00;3.63;;;2.27;;
55292;SDS011;41157;53.560;10.098;2023-11-21T13:13:28;2.03;;;1.90;;
55292;SDS011;41157;53.560;10.098;2023-11-21T13:15:58;1.70;;;1.60;;
55292;SDS011;41157;53.560;10.098;2023-11-21T13:18:29;2.90;;;2.03;;
55292;SDS011;41157;53.560;10.098;2023-11-21T13:20:57;5.67;;;2.23;;
55292;SDS011;41157;53.560;10.098;2023-11-21T13:23:24;2.93;;;2.13;;
55292;SDS011;41157;53.560;10.098;2023-11-21T13:25:51;4.00;;;2.27;;
55292;SDS011;41157;53.560;10.098;2023-11-21T13:28:18;2.40;;;1.90;;
55292;SDS011;41157;53.560;10.098;2023-11-21T13:30:46;2.23;;;2.03;;
55292;SDS011;41157;53.560;10.098;2023-11-21T13:33:15;2.83;;;2.00;;
55292;SDS011;41157;53.560;10.098;2023-11-21T13:35:43;3.17;;;2.03;;
55292;SDS011;41157;53.560;10.098;2023-11-21T13:38:13;5.07;;;2.17;;
55292;SDS011;41157;53.560;10.098;2023-11-21T13:40:42;4.87;;;3.43;;
55292;SDS011;41157;53.560;10.098;2023-11-21T13:43:11;3.50;;;2.40;;
55292;SDS011;41157;53.560;10.098;2023-11-21T13:45:39;3.80;;;2.00;;
55292;SDS011;41157;53.560;10.098;2023-11-21T13:48:07;3.37;;;2.40;;
55292;SDS011;41157;53.560;10.098;2023-11-21T13:50:36;5.83;;;2.73;;
55292;SDS011;41157;53.560;10.098;2023-11-21T13:53:04;4.47;;;2.30;;
55292;SDS011;41157;53.560;10.098;2023-11-21T13:55:41;2.43;;;2.07;;
55292;SDS011;41157;53.560;10.098;2023-11-21T13:58:08;4.97;;;2.40;;
55292;SDS011;41157;53.560;10.098;2023-11-21T14:00:39;3.53;;;2.10;;
55292;SDS011;41157;53.560;10.098;2023-11-21T14:03:09;3.30;;;2.27;;
55292;SDS011;41157;53.560;10.098;2023-11-21T14:05:45;3.30;;;2.07;;
55292;SDS011;41157;53.560;10.098;2023-11-21T14:08:16;2.20;;;2.00;;
55292;SDS011;41157;53.560;10.098;2023-11-21T14:10:45;2.17;;;1.97;;
55292;SDS011;41157;53.560;10.098;2023-11-21T14:13:15;4.40;;;2.13;;
55292;SDS011;41157;53.560;10.098;2023-11-21T14:15:42;5.97;;;2.40;;
55292;SDS011;41157;53.560;10.098;2023-11-21T14:18:11;4.10;;;2.70;;
55292;SDS011;41157;53.560;10.098;2023-11-21T14:20:42;2.90;;;2.17;;
55292;SDS011;41157;53.560;10.098;2023-11-21T14:23:10;2.97;;;2.37;;
55292;SDS011;41157;53.560;10.098;2023-11-21T14:25:37;6.50;;;2.50;;
55292;SDS011;41157;53.560;10.098;2023-11-21T14:28:07;3.87;;;2.30;;
55292;SDS011;41157;53.560;10.098;2023-11-21T14:30:36;2.43;;;2.03;;
55292;SDS011;41157;53.560;10.098;2023-11-21T14:33:04;4.37;;;2.10;;
55292;SDS011;41157;53.560;10.098;2023-11-21T14:35:33;5.20;;;2.47;;
55292;SDS011;41157;53.560;10.098;2023-11-21T14:38:00;3.80;;;2.27;;
55292;SDS011;41157;53.560;10.098;2023-11-21T14:40:31;3.73;;;2.23;;